Myra Eckstein — WDF9473 — position and weather

sailwx.info

Track history (hours):
 
Tides and Currents Weather Stations Pressure Air Temp Water Temp Dewpoint Dewpoint Depression Visibility Wind Speed Wind Dir Waves Ship Positions

Myra Eckstein

Owner: Marquette Transportation Co. LLC, Paducah, KY. More information available from US FCC via Universal Licensing System and Coast Guard Vessel Documentation Center.

Last reported at 2014-Oct-27 09:08 UTC. Time now 2014-Oct-30 14:35 UTC.
Position N 30°04' W 090°54'.

Length 47 m; draft 3.5 m.

Type: Towing. MMSI: 367505510.

Date/timePositionNaut miles runAvg speedWind from/ knotsBaromVisibWave heightAir tempDewpointWater temp
2014-Oct-27 09:08N 30°04' W 090°54'0 0.0
2014-Oct-27 08:30N 30°04' W 090°54'12 1.7
2014-Oct-27 01:30N 30°03' W 090°40'14 1.4
2014-Oct-26 15:28N 29°59' W 090°24'5 5.0
2014-Oct-26 14:33N 29°56' W 090°20'2 0.1
2014-Oct-25 15:04N 29°56' W 090°22'8 2.2
2014-Oct-25 11:27N 30°02' W 090°28'0 0.0
2014-Oct-25 10:33N 30°02' W 090°28'0 0.0
2014-Oct-25 09:24N 30°02' W 090°28'4 3.4
2014-Oct-25 08:09N 30°03' W 090°33'1 1.8
2014-Oct-25 07:32N 30°03' W 090°34'0 0.0
2014-Oct-25 06:33N 30°03' W 090°34'0 0.0
2014-Oct-25 05:32N 30°03' W 090°34'29 1.9
2014-Oct-24 14:34N 30°12' W 091°06'7 3.2
2014-Oct-24 12:30N 30°17' W 091°12'3 3.2
2014-Oct-24 11:30N 30°19' W 091°09'  
Track history (hours):
 
Tides and Currents Weather Stations Pressure Air Temp Water Temp Dewpoint Dewpoint Depression Visibility Wind Speed Wind Dir Waves Ship Positions

Myra Eckstein

Owner: Marquette Transportation Co. LLC, Paducah, KY. More information available from US FCC via Universal Licensing System and Coast Guard Vessel Documentation Center.

Last reported at 2014-Oct-27 09:08 UTC. Time now 2014-Oct-30 14:35 UTC.
Position N 30°04' W 090°54'.

Length 47 m; draft 3.5 m.

Type: Towing. MMSI: 367505510.

Date/timePositionNaut miles runAvg speedWind from/ knotsBaromVisibWave heightAir tempDewpointWater temp
2014-Oct-27 09:08N 30°04' W 090°54'0 0.0
2014-Oct-27 08:30N 30°04' W 090°54'12 1.7
2014-Oct-27 01:30N 30°03' W 090°40'14 1.4
2014-Oct-26 15:28N 29°59' W 090°24'5 5.0
2014-Oct-26 14:33N 29°56' W 090°20'2 0.1
2014-Oct-25 15:04N 29°56' W 090°22'8 2.2
2014-Oct-25 11:27N 30°02' W 090°28'0 0.0
2014-Oct-25 10:33N 30°02' W 090°28'0 0.0
2014-Oct-25 09:24N 30°02' W 090°28'4 3.4
2014-Oct-25 08:09N 30°03' W 090°33'1 1.8
2014-Oct-25 07:32N 30°03' W 090°34'0 0.0
2014-Oct-25 06:33N 30°03' W 090°34'0 0.0
2014-Oct-25 05:32N 30°03' W 090°34'29 1.9
2014-Oct-24 14:34N 30°12' W 091°06'7 3.2
2014-Oct-24 12:30N 30°17' W 091°12'3 3.2
2014-Oct-24 11:30N 30°19' W 091°09'  

Dump ship's entire track history